Portada
METAR-TAF:

METAR-TAF

Aeropuertos :

Bonaire, Antillas Neerlandesas

Aeropuerto Internacional Flamingo

latitud: 12-09N, longitud: 068-17W, altitud: 6 m

Observación

El informe se hizo hace 22 minutos, a las 14:55 UTC
Viento 9 kt del este, variando entre noreste y sur
Temperatura 28°C
Humedad 70%
Presión 1013 hPa
Visibilidad 10 km o más

METAR: TNCB 111455Z AUTO 10009KT 050V170 9999 FEW025/// SCT029/// BKN036/// 28/22 Q1013

Hora: 11:17 (15:17 UTC)

Pronóstico

El informe se hizo hace 4 horas y 11 minutos, a las 11:06 UTC
Pronóstico válido del 11 a las 12 UTC al 12 a las 18 UTC
Viento 8 kt del este
Visibilidad 10 km o más
Nubes dispersas a una altura de 1800 ft

TAF: TNCB 111106Z 1112/1218 08008KT 9999 SCT018

Observaciones y pronósticos meteorológicos de más de 4000 aeropuertos (mensajes METAR y TAF).

Los puntos amarillos y rojos representan las estaciones disponibles.

Ponga el ratón en el punto deseado para ver el nombre de la estación.

Haga clic para ver las observaciones y los pronósticos meteorológicos.

Para cambiar el mapa : haga clic en los botones verdes con una cruz de color negro para hacer un zoom, en el botón verde con un guión para alejar o en las flechas verdes para mapas adyacentes.


METAR-TAF: